Time;durP1;ratioP1;P1;durP2;ratioP2;P2;SDS_P1;SDS_P2;PMS_P1;PMS_P2;Temp;Humidity;BMP_temperature;BMP_pressure;BME280_temperature;BME280_humidity;BME280_pressure;Samples;Min_cycle;Max_cycle;Signal;HPM_P1;HPM_P2
2023/07/01 00:01:59;;;;;;;13.13;6.80;;;17.90;99.90;;;17.40;100.00;100958.72;4185324;28;20025;-76
2023/07/01 00:04:00;;;;;;;11.77;6.20;;;17.90;99.90;;;17.38;100.00;100955.41;4186689;28;20029;-76
2023/07/01 00:06:02;;;;;;;13.90;7.53;;;17.90;99.90;;;17.42;100.00;100959.31;4187008;28;20099;-76
2023/07/01 00:08:03;;;;;;;14.25;7.28;;;17.90;99.90;;;17.40;100.00;100961.38;4152892;28;20057;-76
2023/07/01 00:10:04;;;;;;;17.17;7.55;;;17.90;99.90;;;17.41;100.00;100963.03;4186698;28;20032;-76
2023/07/01 00:12:05;;;;;;;12.65;7.47;;;17.90;99.90;;;17.41;100.00;100963.81;4168852;28;20029;-76
2023/07/01 00:14:07;;;;;;;12.43;7.20;;;17.90;99.90;;;17.33;100.00;100944.50;4168974;28;20072;-76
2023/07/01 00:16:09;;;;;;;14.40;6.90;;;17.90;99.90;;;17.42;100.00;100957.47;4186613;28;20071;-76
2023/07/01 00:18:09;;;;;;;16.48;8.02;;;17.90;99.90;;;17.49;100.00;100960.19;4201696;28;20024;-76
2023/07/01 00:20:11;;;;;;;12.35;6.95;;;17.90;99.90;;;17.39;100.00;100955.22;4168897;28;20045;-76
2023/07/01 00:22:12;;;;;;;13.30;7.53;;;17.90;99.90;;;17.46;100.00;100971.25;4168893;28;20044;-76
2023/07/01 00:24:13;;;;;;;11.95;7.13;;;17.90;99.90;;;17.38;100.00;100966.88;4168982;28;20042;-76
2023/07/01 00:26:14;;;;;;;13.75;7.20;;;17.90;99.90;;;17.36;100.00;100950.25;4186399;28;20082;-76
2023/07/01 00:28:15;;;;;;;12.27;6.68;;;17.90;99.90;;;17.36;100.00;100949.44;4186580;28;20093;-76
2023/07/01 00:30:16;;;;;;;13.00;6.85;;;17.90;99.90;;;17.40;100.00;100951.53;4184963;28;20029;-76
2023/07/01 00:32:16;;;;;;;10.20;5.93;;;17.90;99.90;;;17.42;100.00;100952.16;4151992;28;20505;-76
2023/07/01 00:34:17;;;;;;;15.57;7.10;;;17.90;99.90;;;17.40;100.00;100950.69;4186529;28;20021;-76
2023/07/01 00:36:18;;;;;;;9.50;5.80;;;17.90;99.90;;;17.41;100.00;100947.03;4186255;28;20036;-76
2023/07/01 00:38:19;;;;;;;13.18;6.35;;;17.90;99.90;;;17.47;100.00;100944.38;4168272;28;20029;-76
2023/07/01 00:40:20;;;;;;;13.55;6.70;;;17.90;99.90;;;17.47;100.00;100936.38;4186406;28;20028;-76
2023/07/01 00:42:21;;;;;;;9.70;5.60;;;17.90;99.90;;;17.45;100.00;100933.09;4168609;28;20025;-76
2023/07/01 00:44:22;;;;;;;12.27;5.97;;;17.90;99.90;;;17.39;100.00;100920.53;4168364;28;20505;-76
2023/07/01 00:46:23;;;;;;;11.05;6.10;;;17.90;99.90;;;17.42;100.00;100930.00;4168417;28;20053;-76
2023/07/01 00:48:27;;;;;;;14.48;6.45;;;17.90;99.90;;;17.43;100.00;100926.31;4185943;28;20511;-76
2023/07/01 00:50:30;;;;;;;13.10;5.85;;;17.90;99.90;;;17.41;100.00;100923.81;4186042;28;20091;-76
2023/07/01 00:52:31;;;;;;;15.27;6.20;;;17.90;99.90;;;17.45;100.00;100921.59;4168443;28;20033;-76
2023/07/01 00:54:35;;;;;;;12.65;5.80;;;17.90;99.90;;;17.45;100.00;100914.44;4151957;28;20034;-76
2023/07/01 00:56:35;;;;;;;14.48;5.88;;;18.00;99.90;;;17.41;100.00;100915.03;4168456;28;20104;-76
2023/07/01 00:58:36;;;;;;;9.35;5.90;;;17.90;99.90;;;17.46;100.00;100908.09;4167434;28;20029;-76
2023/07/01 01:00:38;;;;;;;9.00;5.35;;;18.00;99.90;;;17.39;100.00;100901.03;4185878;28;20037;-75
2023/07/01 01:03:06;;;;;;;10.02;5.72;;;17.90;99.90;;;17.45;100.00;100906.41;4167774;28;20033;-76
2023/07/01 01:05:15;;;;;;;13.30;5.88;;;18.00;99.90;;;17.45;100.00;100906.41;4185980;28;20060;-76
2023/07/01 01:07:36;;;;;;;10.20;5.68;;;18.00;99.90;;;17.43;100.00;100913.81;4168310;28;20022;-76
2023/07/01 01:09:51;;;;;;;12.05;5.97;;;18.00;99.90;;;17.41;100.00;100899.03;4185922;28;20035;-76
2023/07/01 01:11:54;;;;;;;14.50;7.40;;;17.90;99.90;;;17.42;100.00;100904.16;4168455;28;20022;-76
2023/07/01 01:14:03;;;;;;;12.57;5.60;;;17.90;99.90;;;17.45;100.00;100900.25;4151476;28;20026;-76
2023/07/01 01:16:05;;;;;;;13.35;5.43;;;18.00;99.90;;;17.42;100.00;100889.97;4168882;28;20099;-76
2023/07/01 01:18:07;;;;;;;11.05;5.63;;;18.00;99.90;;;17.49;100.00;100905.03;4167674;28;20130;-76
2023/07/01 01:20:13;;;;;;;10.15;5.45;;;18.00;99.90;;;17.48;100.00;100900.69;4168790;28;20456;-76
2023/07/01 01:22:36;;;;;;;10.63;5.22;;;18.00;99.90;;;17.44;100.00;100898.63;4185449;28;20013;-76
2023/07/01 01:24:42;;;;;;;11.07;4.80;;;18.00;99.90;;;17.42;100.00;100884.66;4168154;28;20030;-75
2023/07/01 01:26:45;;;;;;;8.48;4.65;;;18.00;99.90;;;17.41;100.00;100885.69;4185656;28;20104;-75
2023/07/01 01:28:47;;;;;;;8.18;4.97;;;18.00;99.90;;;17.41;100.00;100891.81;4168278;28;20036;-75
2023/07/01 01:30:48;;;;;;;11.55;5.18;;;18.00;99.90;;;17.41;100.00;100885.69;4167862;28;20523;-75
2023/07/01 01:32:50;;;;;;;8.82;5.32;;;18.00;99.90;;;17.46;100.00;100884.06;4185189;28;20033;-76
2023/07/01 01:34:51;;;;;;;9.50;4.90;;;18.00;99.90;;;17.47;100.00;100884.91;4185305;28;20416;-75
2023/07/01 01:36:56;;;;;;;10.13;5.15;;;18.00;99.90;;;17.43;100.00;100876.47;4167794;28;20044;-76
2023/07/01 01:39:05;;;;;;;12.25;4.95;;;18.00;99.90;;;17.45;100.00;100885.09;4167989;28;20080;-76
2023/07/01 01:41:30;;;;;;;12.77;4.85;;;18.00;99.90;;;17.41;100.00;100878.50;4168524;28;20026;-76
2023/07/01 01:43:56;;;;;;;11.35;5.28;;;18.00;99.90;;;17.45;100.00;100890.41;4168328;28;20401;-75
2023/07/01 01:45:58;;;;;;;15.25;5.53;;;18.00;99.90;;;17.42;100.00;100892.66;4168360;28;20100;-76
2023/07/01 01:47:59;;;;;;;12.57;5.22;;;17.90;99.90;;;17.46;100.00;100888.59;4185172;28;20017;-76
2023/07/01 01:50:07;;;;;;;16.30;5.05;;;17.90;99.90;;;17.35;100.00;100884.59;4167977;28;20025;-76
2023/07/01 01:52:10;;;;;;;11.23;4.68;;;17.90;99.90;;;17.36;100.00;100880.09;4168186;28;20022;-76
2023/07/01 01:54:13;;;;;;;14.68;5.38;;;17.90;99.90;;;17.38;100.00;100878.09;4168019;28;20550;-76
2023/07/01 01:56:15;;;;;;;13.05;4.88;;;17.90;99.90;;;17.40;100.00;100886.69;4184185;28;20117;-76
2023/07/01 01:58:16;;;;;;;13.75;4.78;;;17.90;99.90;;;17.38;100.00;100889.56;4185091;28;20485;-76
2023/07/01 02:00:18;;;;;;;8.63;4.80;;;17.90;99.90;;;17.26;100.00;100877.81;4185196;28;20025;-76
2023/07/01 02:02:19;;;;;;;12.23;5.75;;;17.90;99.90;;;17.32;100.00;100879.69;4166948;28;20017;-75
2023/07/01 02:04:20;;;;;;;12.07;4.70;;;17.90;99.90;;;17.28;100.00;100870.44;4200750;28;20074;-76
2023/07/01 02:06:21;;;;;;;13.88;5.15;;;17.80;99.90;;;17.29;100.00;100869.44;4185111;28;20079;-76
2023/07/01 02:08:22;;;;;;;10.50;5.15;;;17.90;99.90;;;17.35;100.00;100879.28;4167609;28;20041;-76
2023/07/01 02:10:23;;;;;;;9.52;4.45;;;17.90;99.90;;;17.25;100.00;100872.66;4188109;28;20079;-76
2023/07/01 02:12:26;;;;;;;11.40;4.35;;;17.80;99.90;;;17.27;100.00;100874.09;4170711;28;20029;-75
2023/07/01 02:14:26;;;;;;;11.88;5.13;;;17.80;99.90;;;17.29;100.00;100885.44;4171019;28;20059;-75
2023/07/01 02:16:27;;;;;;;10.65;5.22;;;17.80;99.90;;;17.28;100.00;100880.28;4188455;28;20123;-75
2023/07/01 02:18:28;;;;;;;8.70;4.25;;;17.80;99.90;;;17.31;100.00;100879.88;4188141;28;20032;-76
2023/07/01 02:20:30;;;;;;;13.90;5.03;;;17.80;99.90;;;17.31;100.00;100879.88;4188132;28;20068;-76
2023/07/01 02:22:31;;;;;;;9.95;4.85;;;17.80;99.90;;;17.26;100.00;100874.31;4188360;28;20024;-76
2023/07/01 02:24:32;;;;;;;12.05;5.32;;;17.80;99.90;;;17.31;100.00;100880.72;4170687;28;20030;-76
2023/07/01 02:26:33;;;;;;;15.95;5.30;;;17.80;99.90;;;17.29;100.00;100874.75;4188301;28;20036;-75
2023/07/01 02:28:34;;;;;;;13.80;5.35;;;17.80;99.90;;;17.30;100.00;100884.38;4188164;28;20578;-76
2023/07/01 02:30:35;;;;;;;15.88;4.80;;;17.80;99.90;;;17.31;100.00;100880.72;4170583;28;20064;-76
2023/07/01 02:32:36;;;;;;;15.15;5.70;;;17.80;99.90;;;17.21;100.00;100864.22;4188205;28;20100;-76
2023/07/01 02:34:37;;;;;;;13.00;4.78;;;17.80;99.90;;;17.28;100.00;100875.75;4187121;28;20452;-76
2023/07/01 02:36:40;;;;;;;17.77;5.90;;;17.80;99.90;;;17.30;100.00;100878.22;4188050;28;20025;-76
2023/07/01 02:38:41;;;;;;;18.67;5.72;;;17.80;99.90;;;17.24;100.00;100871.84;4188095;28;20111;-76
2023/07/01 02:40:42;;;;;;;15.40;5.68;;;17.80;99.90;;;17.23;100.00;100878.22;4188111;28;20043;-76
2023/07/01 02:42:43;;;;;;;13.60;4.80;;;17.80;99.90;;;17.09;100.00;100850.63;4170323;28;20064;-76
2023/07/01 02:44:44;;;;;;;13.50;5.03;;;17.80;99.90;;;17.25;100.00;100873.50;4170202;28;20085;-76
2023/07/01 02:46:45;;;;;;;13.60;4.88;;;17.80;99.90;;;17.25;100.00;100870.81;4188193;28;20404;-76
2023/07/01 02:48:45;;;;;;;14.52;4.22;;;17.80;99.90;;;17.25;100.00;100867.34;4187771;28;20033;-76
2023/07/01 02:50:46;;;;;;;15.23;4.53;;;17.80;99.90;;;17.24;100.00;100866.50;4170131;28;20065;-76
2023/07/01 02:52:47;;;;;;;12.23;4.25;;;17.70;99.90;;;17.24;100.00;100866.50;4170144;28;20452;-76
2023/07/01 02:54:48;;;;;;;8.55;4.18;;;17.70;99.90;;;17.17;100.00;100848.84;4188303;28;20025;-77
2023/07/01 02:56:49;;;;;;;13.90;4.45;;;17.70;99.90;;;17.14;100.00;100863.38;4170168;28;20064;-77
2023/07/01 02:58:50;;;;;;;11.52;4.75;;;17.70;99.90;;;17.18;100.00;100856.63;4170047;28;20036;-76
2023/07/01 03:00:50;;;;;;;11.60;4.50;;;17.70;99.90;;;17.20;100.00;100859.09;4170005;28;20051;-76
2023/07/01 03:02:52;;;;;;;11.68;4.40;;;17.70;99.90;;;17.15;100.00;100852.50;4169794;28;20406;-76
2023/07/01 03:04:53;;;;;;;9.52;4.00;;;17.70;99.90;;;17.16;100.00;100853.34;4187797;28;20020;-76
2023/07/01 03:06:54;;;;;;;9.45;3.85;;;17.70;99.90;;;17.18;100.00;100853.97;4169914;28;20025;-76
2023/07/01 03:08:55;;;;;;;12.13;4.03;;;17.70;99.90;;;17.16;100.00;100848.00;4187676;28;20032;-76
2023/07/01 03:10:56;;;;;;;10.63;4.75;;;17.70;99.90;;;17.12;100.00;100847.56;4187775;28;20025;-76
2023/07/01 03:12:57;;;;;;;12.00;4.72;;;17.70;99.90;;;17.18;100.00;100856.63;4169938;28;20022;-76
2023/07/01 03:14:58;;;;;;;8.20;3.22;;;17.70;99.90;;;17.12;100.00;100841.41;4187640;28;20040;-76
2023/07/01 03:16:59;;;;;;;8.95;3.67;;;17.70;99.90;;;17.15;100.00;100852.50;4169622;28;20029;-76
2023/07/01 03:19:00;;;;;;;9.73;3.53;;;17.70;99.90;;;17.09;100.00;100836.47;4187256;28;20060;-76
2023/07/01 03:21:02;;;;;;;11.07;3.40;;;17.70;99.90;;;17.12;100.00;100849.41;4168970;28;20540;-76
2023/07/01 03:23:03;;;;;;;10.70;3.80;;;17.70;99.90;;;17.16;100.00;100853.34;4187441;28;20025;-76
2023/07/01 03:25:07;;;;;;;7.90;2.90;;;17.70;99.90;;;17.05;100.00;100829.91;4169609;28;20505;-76
2023/07/01 03:27:08;;;;;;;5.63;3.10;;;17.70;99.90;;;17.15;100.00;100852.50;4170266;28;20401;-76
2023/07/01 03:29:09;;;;;;;8.68;3.10;;;17.70;99.90;;;17.14;100.00;100842.06;4187402;28;20035;-76
2023/07/01 03:31:10;;;;;;;8.20;2.90;;;17.70;99.90;;;17.10;100.00;100838.97;4153116;28;20612;-76
2023/07/01 03:33:12;;;;;;;6.55;3.05;;;17.70;99.90;;;17.17;100.00;100859.50;4169464;28;20025;-76
2023/07/01 03:35:15;;;;;;;7.65;3.58;;;17.70;99.90;;;17.10;100.00;100848.78;4187176;28;20020;-76
2023/07/01 03:37:16;;;;;;;9.98;3.40;;;17.70;99.90;;;17.12;100.00;100841.41;4187120;28;20094;-76
2023/07/01 03:39:17;;;;;;;6.95;3.00;;;17.70;99.90;;;17.13;100.00;100845.72;4186818;28;20030;-76
2023/07/01 03:41:18;;;;;;;8.63;2.90;;;17.70;99.90;;;17.05;100.00;100835.25;4187175;28;20025;-76
2023/07/01 03:43:18;;;;;;;10.73;2.92;;;17.70;99.90;;;17.06;100.00;100835.03;4185930;28;20159;-76
2023/07/01 03:45:19;;;;;;;8.77;3.13;;;17.70;99.90;;;17.17;100.00;100852.34;4185928;28;20579;-76
2023/07/01 03:47:21;;;;;;;7.90;2.90;;;17.70;99.90;;;17.14;100.00;100848.19;4169367;28;20056;-76
2023/07/01 03:49:22;;;;;;;7.40;2.83;;;17.70;99.90;;;17.14;100.00;100850.06;4169388;28;20089;-76
2023/07/01 03:51:23;;;;;;;10.40;3.10;;;17.70;99.90;;;17.12;100.00;100849.41;4187075;28;20025;-76
2023/07/01 03:53:24;;;;;;;4.93;2.45;;;17.70;99.90;;;17.06;100.00;100834.19;4187066;28;20025;-76
2023/07/01 03:55:25;;;;;;;6.88;2.63;;;17.70;99.90;;;17.13;100.00;100832.41;4186950;28;20033;-76
2023/07/01 03:57:26;;;;;;;5.95;3.13;;;17.70;99.90;;;17.08;100.00;100840.19;4186952;28;20024;-76
2023/07/01 03:59:27;;;;;;;5.90;2.92;;;17.70;99.90;;;17.19;100.00;100846.78;4169492;28;21471;-77
2023/07/01 04:01:29;;;;;;;7.57;3.38;;;17.70;99.90;;;17.20;100.00;100851.94;4186754;28;20037;-76
2023/07/01 04:03:33;;;;;;;4.47;2.40;;;17.70;99.90;;;17.16;100.00;100848.00;4186658;28;20472;-76
2023/07/01 04:05:34;;;;;;;9.27;3.00;;;17.70;99.90;;;17.12;100.00;100846.75;4169321;28;20499;-76
2023/07/01 04:07:35;;;;;;;7.75;2.70;;;17.70;99.90;;;17.15;100.00;100841.84;4169101;28;20060;-76
2023/07/01 04:09:36;;;;;;;6.45;3.03;;;17.70;99.90;;;17.11;100.00;100837.13;4169120;28;20018;-76
2023/07/01 04:11:37;;;;;;;6.13;3.05;;;17.70;99.90;;;17.11;100.00;100845.13;4186716;28;20033;-76
2023/07/01 04:13:38;;;;;;;6.63;3.10;;;17.70;99.90;;;17.12;100.00;100836.09;4169102;28;20508;-76
2023/07/01 04:15:39;;;;;;;10.80;3.30;;;17.70;99.90;;;17.12;100.00;100836.09;4186454;28;20029;-76
2023/07/01 04:17:44;;;;;;;10.80;2.80;;;17.60;99.90;;;17.10;100.00;100832.78;4186419;28;20025;-76
2023/07/01 04:19:45;;;;;;;4.55;2.50;;;17.70;99.90;;;17.08;100.00;100840.97;4168783;28;20116;-76
2023/07/01 04:21:46;;;;;;;6.15;2.95;;;17.70;99.90;;;17.11;100.00;100839.78;4168895;28;20033;-76
2023/07/01 04:23:46;;;;;;;7.05;3.08;;;17.70;99.90;;;17.14;100.00;100839.41;4170242;28;20041;-76
2023/07/01 04:25:47;;;;;;;12.45;3.25;;;17.70;99.90;;;17.19;100.00;100842.28;4170051;28;20021;-76
2023/07/01 04:27:48;;;;;;;7.10;3.13;;;17.70;99.90;;;17.09;100.00;100828.47;4152514;28;20063;-76
2023/07/01 04:29:49;;;;;;;9.00;3.28;;;17.70;99.90;;;17.19;100.00;100846.78;4170057;28;20072;-76
2023/07/01 04:31:50;;;;;;;8.02;3.25;;;17.70;99.90;;;17.21;100.00;100853.56;4169829;28;20048;-77
2023/07/01 04:33:51;;;;;;;4.35;2.72;;;17.70;99.90;;;17.17;100.00;100838.16;4169934;28;20516;-76
2023/07/01 04:35:52;;;;;;;7.55;3.70;;;17.70;99.90;;;17.17;100.00;100838.16;4169867;28;20112;-76
2023/07/01 04:37:52;;;;;;;7.82;3.47;;;17.70;99.90;;;17.10;100.00;100835.47;4168539;28;20032;-76
2023/07/01 04:39:53;;;;;;;9.98;3.40;;;17.70;99.90;;;17.10;100.00;100849.63;4169745;28;20044;-76
2023/07/01 04:41:54;;;;;;;5.90;3.00;;;17.70;99.90;;;17.12;100.00;100842.25;4168638;28;20132;-76
2023/07/01 04:43:56;;;;;;;7.30;2.85;;;17.60;99.90;;;17.04;100.00;100836.25;4169714;28;20033;-76
2023/07/01 04:45:58;;;;;;;8.77;3.20;;;17.70;99.90;;;17.08;100.00;100843.63;4169673;28;20053;-76
2023/07/01 04:48:00;;;;;;;9.20;3.55;;;17.60;99.90;;;17.06;100.00;100847.53;4151652;28;20045;-76
2023/07/01 04:50:01;;;;;;;6.72;2.55;;;17.70;99.90;;;17.13;100.00;100851.91;4152043;28;20429;-76
2023/07/01 04:52:02;;;;;;;7.28;3.50;;;17.70;99.90;;;17.11;100.00;100847.78;4168373;28;20044;-76
2023/07/01 04:54:04;;;;;;;10.18;3.92;;;17.70;99.90;;;17.07;100.00;100851.84;4168289;28;20472;-76
2023/07/01 04:56:05;;;;;;;8.75;3.30;;;17.70;99.90;;;17.06;100.00;100842.19;4169407;28;20519;-76
2023/07/01 04:58:06;;;;;;;8.50;3.63;;;17.70;99.90;;;17.06;100.00;100842.19;4168318;28;20025;-76
2023/07/01 05:00:10;;;;;;;7.40;3.63;;;17.70;99.90;;;17.14;100.00;100853.53;4168470;28;20497;-76
2023/07/01 05:02:11;;;;;;;10.13;3.20;;;17.70;99.90;;;17.14;100.00;100856.19;4169196;28;20068;-76
2023/07/01 05:04:11;;;;;;;6.10;3.45;;;17.70;99.90;;;17.21;100.00;100861.56;4169166;28;20033;-76
2023/07/01 05:06:12;;;;;;;8.57;3.55;;;17.70;99.90;;;17.20;100.00;100862.59;4168098;28;20025;-77
2023/07/01 05:08:13;;;;;;;4.78;2.50;;;17.80;99.90;;;17.20;100.00;100851.94;4168057;28;20037;-76
2023/07/01 05:10:14;;;;;;;6.53;2.65;;;17.80;99.90;;;17.22;100.00;100868.56;4169312;28;20107;-76
2023/07/01 05:12:15;;;;;;;7.65;2.83;;;17.80;99.90;;;17.20;100.00;100865.28;4168073;28;20453;-76
2023/07/01 05:14:16;;;;;;;8.98;2.28;;;17.80;99.90;;;17.15;100.00;100838.34;4157292;28;20036;-76
2023/07/01 05:16:16;;;;;;;4.05;1.90;;;17.80;99.90;;;17.30;100.00;100862.22;4169399;28;20378;-76
2023/07/01 05:18:17;;;;;;;4.32;2.10;;;17.80;99.90;;;17.32;100.00;100866.38;4168884;28;20084;-76
2023/07/01 05:20:18;;;;;;;3.60;1.75;;;17.90;99.90;;;17.28;100.00;100856.28;4181348;28;20049;-76
2023/07/01 05:22:19;;;;;;;6.10;2.28;;;17.90;99.90;;;17.30;100.00;100871.06;4167987;28;20461;-76
2023/07/01 05:24:21;;;;;;;8.93;2.30;;;17.90;99.90;;;17.31;100.00;100877.22;4168046;28;20021;-76
2023/07/01 05:26:21;;;;;;;5.88;2.22;;;17.80;99.90;;;17.23;100.00;100864.06;4184475;28;20097;-76
2023/07/01 05:28:22;;;;;;;5.95;2.00;;;17.80;99.90;;;17.27;100.00;100882.09;4167623;28;20037;-77
2023/07/01 05:30:23;;;;;;;4.72;2.47;;;17.80;99.90;;;17.28;100.00;100870.44;4168061;28;20092;-77
2023/07/01 05:32:24;;;;;;;5.70;1.80;;;17.80;99.90;;;17.29;100.00;100880.09;4185316;28;20029;-76
2023/07/01 05:34:25;;;;;;;2.78;1.70;;;17.80;99.90;;;17.01;100.00;100861.44;4167982;28;20037;-77
2023/07/01 05:36:26;;;;;;;6.32;1.83;;;17.70;99.90;;;17.09;100.00;100879.94;4167875;28;20476;-76
2023/07/01 05:38:27;;;;;;;3.55;1.60;;;17.70;99.90;;;17.10;100.00;100888.78;4167747;28;20033;-76
2023/07/01 05:40:28;;;;;;;5.35;1.80;;;17.70;99.90;;;17.10;100.00;100875.44;4185375;28;20540;-76
2023/07/01 05:42:29;;;;;;;4.00;1.52;;;17.70;99.90;;;17.13;100.00;100881.22;4185469;28;20029;-76
2023/07/01 05:44:30;;;;;;;3.28;1.33;;;17.70;99.90;;;17.22;100.00;100889.06;4167145;28;20021;-76
2023/07/01 05:46:31;;;;;;;2.08;1.35;;;17.80;99.90;;;17.19;100.00;100889.44;4185441;28;20032;-76
2023/07/01 05:48:31;;;;;;;4.78;2.03;;;17.80;99.90;;;17.21;100.00;100892.72;4151203;28;20029;-76
2023/07/01 05:50:32;;;;;;;3.63;1.88;;;17.80;99.90;;;17.32;100.00;100895.69;4185251;28;20028;-76
2023/07/01 05:52:33;;;;;;;2.53;1.33;;;17.90;99.90;;;17.41;100.00;100889.16;4185220;28;20091;-76
2023/07/01 05:54:34;;;;;;;3.13;1.80;;;17.90;99.90;;;17.49;100.00;100889.03;4185213;28;20036;-76
2023/07/01 05:56:35;;;;;;;2.47;1.50;;;18.00;99.90;;;17.60;100.00;100888.47;4185254;28;20033;-76
2023/07/01 05:58:36;;;;;;;2.65;1.55;;;18.10;99.90;;;17.71;100.00;100894.28;4167550;28;20021;-76
2023/07/01 06:00:37;;;;;;;4.95;1.80;;;18.20;99.90;;;17.63;100.00;100888.09;4174644;28;20036;-76
2023/07/01 06:02:38;;;;;;;5.35;2.63;;;18.20;99.90;;;17.71;100.00;100888.94;4150870;28;20022;-76
2023/07/01 06:04:39;;;;;;;5.93;2.90;;;18.30;99.90;;;17.74;100.00;100893.88;4200626;28;20028;-76
2023/07/01 06:06:40;;;;;;;5.47;3.50;;;18.30;99.90;;;17.79;100.00;100894.94;4185193;28;20032;-76
2023/07/01 06:08:42;;;;;;;4.85;3.67;;;18.30;99.90;;;17.77;100.00;100885.50;4167324;28;20033;-76
2023/07/01 06:10:43;;;;;;;4.75;3.30;;;18.40;99.90;;;17.85;100.00;100899.47;4167247;28;20120;-76
2023/07/01 06:12:44;;;;;;;7.00;4.15;;;18.40;99.90;;;17.74;100.00;100891.22;4185237;28;20028;-76
2023/07/01 06:14:45;;;;;;;6.68;4.20;;;18.30;99.90;;;17.66;100.00;100893.03;4185082;28;20028;-76
2023/07/01 06:16:46;;;;;;;8.15;4.10;;;18.20;99.90;;;17.70;100.00;100877.44;4184786;28;20025;-76
2023/07/01 06:18:47;;;;;;;6.38;4.15;;;18.30;99.90;;;17.90;100.00;100894.34;4167266;28;20077;-76
2023/07/01 06:20:47;;;;;;;8.05;4.78;;;18.30;99.90;;;17.96;100.00;100888.22;4184940;28;20564;-76
2023/07/01 06:22:48;;;;;;;11.15;4.57;;;18.40;99.90;;;17.99;100.00;100876.31;4183579;28;20443;-76
2023/07/01 06:24:49;;;;;;;7.90;5.00;;;18.50;99.90;;;18.13;100.00;100896.69;4167516;28;20080;-76
2023/07/01 06:26:50;;;;;;;6.93;4.30;;;18.60;99.90;;;18.17;100.00;100901.44;4185019;28;20028;-76
2023/07/01 06:28:51;;;;;;;8.27;5.00;;;18.60;99.90;;;18.03;100.00;100888.25;4167609;28;20512;-76
2023/07/01 06:30:52;;;;;;;9.07;5.97;;;18.70;99.90;;;18.09;100.00;100904.28;4184904;28;20075;-76
2023/07/01 06:32:53;;;;;;;8.57;5.60;;;18.60;99.90;;;17.91;100.00;100904.03;4184676;28;20029;-76
2023/07/01 06:34:54;;;;;;;10.38;5.72;;;18.60;99.90;;;17.85;100.00;100912.00;4185039;28;20064;-76
2023/07/01 06:36:54;;;;;;;9.60;6.00;;;18.50;99.90;;;17.78;100.00;100900.47;4167222;28;20021;-76
2023/07/01 06:38:55;;;;;;;12.48;6.95;;;18.50;99.90;;;17.75;100.00;100924.88;4167157;28;20041;-76
2023/07/01 06:40:56;;;;;;;11.15;6.47;;;18.40;99.90;;;17.70;100.00;100920.13;4185865;28;20009;-76
2023/07/01 06:42:57;;;;;;;11.02;5.93;;;18.30;99.90;;;17.72;100.00;100923.41;4184836;28;20388;-76
2023/07/01 06:44:58;;;;;;;12.02;7.03;;;18.30;99.90;;;17.77;100.00;100923.63;4184949;28;20032;-76
2023/07/01 06:46:59;;;;;;;11.57;7.38;;;18.30;99.90;;;17.79;100.00;100929.63;4183521;28;20029;-76
2023/07/01 06:49:00;;;;;;;11.68;6.47;;;18.30;99.90;;;17.78;100.00;100927.13;4184761;28;20029;-76
2023/07/01 06:51:03;;;;;;;10.98;6.72;;;18.30;99.90;;;17.66;100.00;100930.38;4184627;28;20404;-76
2023/07/01 06:53:04;;;;;;;9.90;6.07;;;18.30;99.90;;;17.68;100.00;100928.31;4184631;28;20396;-76
2023/07/01 06:55:07;;;;;;;10.63;6.10;;;18.30;99.90;;;17.76;100.00;100926.53;4184783;28;20028;-76
2023/07/01 06:57:08;;;;;;;10.40;6.00;;;18.30;99.90;;;17.84;100.00;100929.00;4187136;28;20106;-76
2023/07/01 06:59:09;;;;;;;12.57;6.45;;;18.30;99.90;;;17.83;100.00;100919.38;4188001;28;20401;-76
2023/07/01 07:01:10;;;;;;;11.18;6.45;;;18.40;99.90;;;17.75;100.00;100920.34;4170250;28;20021;-76
2023/07/01 07:03:10;;;;;;;12.60;7.00;;;18.40;99.90;;;17.80;100.00;100931.25;4187601;28;20029;-76
2023/07/01 07:05:11;;;;;;;14.43;8.27;;;18.40;99.90;;;17.80;100.00;100935.78;4203017;28;20500;-76
2023/07/01 07:07:12;;;;;;;14.32;6.93;;;18.40;99.90;;;17.83;100.00;100936.19;4202850;28;20071;-76
2023/07/01 07:09:14;;;;;;;14.75;8.10;;;18.30;99.90;;;17.68;100.00;100927.53;4169977;28;20037;-76
2023/07/01 07:11:15;;;;;;;13.50;8.13;;;18.30;99.90;;;17.76;100.00;100923.84;4153643;28;20026;-76
2023/07/01 07:13:19;;;;;;;16.50;9.48;;;18.30;99.90;;;17.83;100.00;100930.84;4169864;28;20044;-76
2023/07/01 07:15:20;;;;;;;14.00;9.18;;;18.30;99.90;;;17.91;100.00;100938.72;4169911;28;20030;-76
2023/07/01 07:17:21;;;;;;;18.42;10.30;;;18.40;99.90;;;17.95;100.00;100939.16;4187395;28;20025;-76
2023/07/01 07:19:22;;;;;;;19.35;11.00;;;18.50;99.90;;;17.99;100.00;100941.19;4169744;28;20432;-76
2023/07/01 07:21:23;;;;;;;18.70;11.80;;;18.50;99.90;;;18.01;100.00;100946.34;4187404;28;20033;-76
2023/07/01 07:23:24;;;;;;;19.60;11.38;;;18.60;99.90;;;18.07;100.00;100948.22;4169898;28;20505;-76
2023/07/01 07:25:25;;;;;;;15.65;10.68;;;18.60;99.90;;;18.17;100.00;100956.66;4187471;28;20052;-76
2023/07/01 07:27:26;;;;;;;21.63;13.38;;;18.80;99.90;;;18.28;100.00;100953.41;4169710;28;20025;-76
2023/07/01 07:29:28;;;;;;;21.45;12.52;;;18.80;99.90;;;18.40;100.00;100957.16;4187376;28;20132;-76
2023/07/01 07:31:29;;;;;;;18.00;12.13;;;18.90;99.90;;;18.56;100.00;100964.84;4187169;28;20029;-76
2023/07/01 07:33:30;;;;;;;18.73;12.70;;;19.00;99.90;;;18.50;100.00;100954.13;4186976;28;20029;-76
2023/07/01 07:35:31;;;;;;;24.75;15.30;;;19.00;99.90;;;18.69;100.00;100966.72;4169685;28;20103;-76
2023/07/01 07:37:32;;;;;;;24.27;13.82;;;19.20;99.90;;;18.64;100.00;100961.13;4187245;28;20033;-76
2023/07/01 07:39:33;;;;;;;20.63;13.80;;;19.30;99.90;;;18.91;100.00;100961.97;4187254;28;20404;-76
2023/07/01 07:41:34;;;;;;;24.30;14.15;;;19.40;99.90;;;18.92;100.00;100963.63;4169392;28;20025;-76
2023/07/01 07:43:34;;;;;;;29.02;15.93;;;19.50;99.90;;;18.79;100.00;100964.44;4187512;28;20029;-76
2023/07/01 07:45:36;;;;;;;25.00;15.57;;;19.50;99.90;;;18.94;100.00;100964.25;4187365;28;20450;-76
2023/07/01 07:47:37;;;;;;;25.58;15.73;;;19.50;99.90;;;18.94;100.00;100972.25;4186930;28;20092;-76
2023/07/01 07:49:37;;;;;;;26.33;15.85;;;19.50;99.90;;;18.96;100.00;100967.56;4169377;28;20124;-76
2023/07/01 07:51:39;;;;;;;28.02;16.25;;;19.60;99.90;;;19.21;100.00;100958.69;4199789;28;20455;-76
2023/07/01 07:53:40;;;;;;;26.35;16.48;;;19.60;99.90;;;19.34;100.00;100961.38;4169359;28;20085;-76
2023/07/01 07:55:42;;;;;;;27.90;16.33;;;19.80;99.90;;;19.48;100.00;100967.53;4185968;28;20427;-76
2023/07/01 07:57:43;;;;;;;29.77;17.75;;;19.90;99.90;;;19.61;100.00;100974.72;4169004;28;20061;-76
2023/07/01 07:59:44;;;;;;;29.48;17.80;;;20.10;99.90;;;19.61;100.00;100972.06;4187466;28;20028;-76
2023/07/01 08:01:45;;;;;;;30.45;19.92;;;20.10;99.90;;;19.42;100.00;100970.22;4186537;28;20033;-76
2023/07/01 08:03:46;;;;;;;31.40;19.67;;;20.20;99.90;;;19.12;100.00;100962.59;4186968;28;20021;-76
2023/07/01 08:05:49;;;;;;;32.80;19.58;;;20.00;99.90;;;19.14;100.00;100965.09;4202350;28;20031;-76
2023/07/01 08:07:50;;;;;;;30.63;18.13;;;19.90;99.90;;;19.25;100.00;100961.78;4168883;28;20500;-76
2023/07/01 08:09:51;;;;;;;28.20;18.73;;;20.00;99.90;;;19.67;100.00;100968.53;4152858;28;20026;-76
2023/07/01 08:11:53;;;;;;;31.33;19.85;;;20.10;99.90;;;19.86;100.00;100970.34;4186644;28;20032;-76
2023/07/01 08:13:54;;;;;;;39.92;20.35;;;20.40;99.90;;;19.99;100.00;100977.50;4185302;28;20063;-76
2023/07/01 08:15:57;;;;;;;29.05;19.75;;;20.50;99.90;;;20.27;100.00;100978.88;4186622;28;20021;-76
2023/07/01 08:17:57;;;;;;;38.53;20.00;;;20.70;99.90;;;20.16;100.00;100967.97;4186216;28;20032;-76
2023/07/01 08:19:58;;;;;;;35.47;21.15;;;20.80;99.90;;;20.25;100.00;100977.41;4168797;28;20046;-76